Mountain Home, Arkansas
Current Conditions -  °F | °C
As of 1:53 PM on Friday 28 Nov 2014 (Local Time) from KBPK Reporting Station
Clear Clear  
Wind Chill: 13°   Ceiling: Unl
Heat Index: 13°   Visibility: 10mi
Dew Point:   Wind: 16mph
Humidity: 42%   Direction: 210°SSW
Pressure: 30.03"   Gusts: 24mph
Location:  36.34°N, 92.38°W
Report Text: KBPK 281953Z AUTO 21014G21KT 10SM CLR 13/00 A3003 RMK AO2 SLP173 T01280000
Loading
Personal Weather Stations






























Interactive Weather Map New forecast layout! Learn more

10-Day Weather Forecast

Advertisements
Track Severe Weather on mobile